Calfucura, Argentina
Current Conditions -  °F | °C
As of 9:00 PM on Wednesday 22 Oct 2014 (Local Time) from SAZM Reporting Station
Scattered Clouds Scattered Clouds  
Wind Chill: 19°   Ceiling: Unl
Heat Index: 19°   Visibility: 6mi
Dew Point: 14°   Wind: 7mph
Humidity: 73%   Direction: 200°SSW
Pressure: 29.97"   Gusts: NA
Location:  37.68°S, 57.52°W
Report Text: SAZM 230000Z 20006KT 9999 FEW030 SCT10019/14 Q1015
Loading
Personal Weather Stations






























Interactive Weather Map
Tropical Storm Tracking
New forecast layout! Learn more

10-Day Weather Forecast

Advertisements
Track Severe Weather on mobile